Flight Track Log - Related Links

Times and Time Zones

All times are in EDT time to prevent confusion due to time zone crossing. See the DAL1836 flight status page for this flight to view local times or setup timezone preferences in your user account.

Time Position Orientation Groundspeed Altitude Reporting Facility
EDT Latitude Longitude Course Direction KTS MPH feet Rate Location/Type
Tue 07:44:41 AM 32.9306 -80.1703 257° West 233 268 4,800  Level Jacksonville Center
Tue 07:45:41 AM 32.9325 -80.2617 271° West 257 296 8,100 3,000 Climbing Jacksonville Center
Tue 07:46:00 AM 32.9367 -80.5539 276° West  Level FlightAware Approximate
Tue 07:46:41 AM 32.9325 -80.3606 270° West 283 326 10,800  Level Jacksonville Center
Tue 07:47:00 AM 32.9493 -80.6926 276° West  Level FlightAware Approximate
Tue 07:47:41 AM 32.9369 -80.4819 273° West 324 373 12,400  Level Jacksonville Center
Tue 07:48:00 AM 32.9620 -80.8312 276° West  Level FlightAware Approximate
Tue 07:48:41 AM 32.9247 -80.6108 264° West 373 429 15,200  Level Jacksonville Center
Tue 07:49:00 AM 32.9498 -80.9681 257° West  Level FlightAware Approximate
Tue 07:49:41 AM 32.9042 -80.7475 260° West 406 467 17,600  Level Jacksonville Center
Tue 07:50:00 AM 32.9226 -81.1037 257° West  Level FlightAware Approximate
Tue 07:50:41 AM 32.8814 -80.8889 259° West 430 495 19,500  Level Jacksonville Center
Tue 07:51:41 AM 32.8606 -81.0303 260° West 436 502 21,700 1,250 Climbing Jacksonville Center
Tue 07:52:41 AM 32.8356 -81.1742 258° West 442 509 22,000 105 Climbing Jacksonville Center
Tue 07:54:33 AM 32.7903 -81.4542 259° West 461 531 22,000  Level Atlanta Center
Tue 07:55:33 AM 32.7661 -81.6008 259° West 456 525 22,000  Level Atlanta Center
Tue 07:56:33 AM 32.7417 -81.7397 258° West 446 513 22,000  Level Atlanta Center
Tue 07:57:33 AM 32.7172 -81.8883 259° West 451 519 22,000  Level Atlanta Center
Tue 07:58:33 AM 32.7239 -82.0314 273° West 446 513 22,000  Level Atlanta Center
Tue 07:59:33 AM 32.7469 -82.1742 281° West 437 503 22,000  Level Atlanta Center
Tue 08:00:33 AM 32.7781 -82.3144 285° West 442 509 22,000  Level Atlanta Center
Tue 08:01:33 AM 32.8092 -82.4522 285° West 442 509 22,000  Level Atlanta Center
Tue 08:02:33 AM 32.8403 -82.5925 285° West 442 509 22,000  Level Atlanta Center
Tue 08:03:33 AM 32.8711 -82.7378 284° West 448 516 22,000  Level Atlanta Center
Tue 08:04:33 AM 32.9039 -82.8858 285° West 454 522 22,000 -450 Level Atlanta Center
Tue 08:05:33 AM 32.9364 -83.0242 286° West 454 522 21,100 -500 Descending Atlanta Center
Tue 08:06:33 AM 32.9708 -83.1697 286° West 454 522 21,000 -200 Descending Atlanta Center
Tue 08:07:33 AM 33.0050 -83.3006 287° West 454 522 20,700 -1,550 Descending Atlanta Center
Tue 08:08:33 AM 33.0539 -83.4267 295° West 447 514 17,900 -1,950 Descending Atlanta Center
Tue 08:09:33 AM 33.1022 -83.5453 296° West 413 475 16,800 -1,000 Descending Atlanta Center
Tue 08:10:33 AM 33.1486 -83.6469 299° West 364 419 15,900 -1,550 Descending Atlanta Center
Tue 08:11:33 AM 33.1906 -83.7533 295° West 334 384 13,700 -1,950 Descending Atlanta Center
Tue 08:12:33 AM 33.2325 -83.8428 299° West 316 364 12,000 -1,450 Descending Atlanta Center
Tue 08:13:33 AM 33.2869 -83.9169 311° West 302 348 10,800 -1,300 Descending Atlanta Center
Tue 08:14:33 AM 33.3372 -83.9917 309° West 297 342 9,400 -1,500 Descending Atlanta Center
Tue 08:15:33 AM 33.3978 -84.0464 323° Northwest 284 327 7,800 -1,600 Descending Atlanta Center
Tue 08:16:33 AM 33.4686 -84.0661 347° North 257 296 6,200 -1,400 Descending Atlanta Center
Tue 08:17:33 AM 33.5397 -84.0836 348° North 257 296 5,000 -1,148 Descending Atlanta Center
Tue 08:18:28 AM 33.5833 -84.1333 316° Northwest 224 258 4,000 -991 Descending Atlanta TRACON
Tue 08:19:22 AM 33.6000 -84.1833 292° West 208 239 3,200 -722 Descending Atlanta TRACON
Tue 08:20:16 AM 33.6167 -84.2333 292° West 188 216 2,700 -263 Descending Atlanta TRACON
Tue 08:21:16 AM 33.6167 -84.3000 270° West 189 217 2,700 -350 Level Atlanta TRACON
Tue 08:22:16 AM 33.6167 -84.3500 270° West 148 170 2,000 -684 Descending Atlanta TRACON
Tue 08:23:10 AM 33.6167 -84.4000 270° West 134 154 1,400 -667 Descending Atlanta TRACON

Login

Don't have an account? Register now (free) for customized features, flight alerts, and more!